Check out our new PWSWeather beta!
PWSweather.com
Personal Weather Stations
Station Observations
OINOFYTA
Oinofyta Greece, OinofytaGR 320 11

Oinofyta GreeceOinofytaGR 320 11

Lat: 38.3080648, Lon: 23.6391172

Elevation: 354

Station Type: ProWeatherStation 1080

https://oinofytaweather.gr/

High Low Average
Temperature 77.0°F25.0°C 57.7°F14.3°C 67.2°F19.6°C
Dew Point 58.6°F14.8°C 41.6°F5.3°C 52.5°F11.4°C
Winds 8.9 mph 14.3 kmh Calm Calm 4.0 mph W6.4 kmh W
Wind Gusts 17.4 mph28.0 kmh 1.6 mph2.6 kmh 9.0 mph14.5 kmh
Humidity 82% 49% 60%
Pressure 30.00 in1015.9 mb 29.86 in1011.2 mb -
Precipitation 0.00 in0.0 mm - -
Hour Temp Dew Point Humidity Winds Wind Gusts Pressure Precip Precip Rate Daily Precip Total
12:00 AM 61.7°F16.5°C 53.7°F12.1°C 75% 0.7 mph W1.1 kmh W 4.5 mph7.2 kmh 29.87 in1011.5 mb 0.00 in0.0 mm 0.00 in0.0 mm 0.00 in0.0 mm
12:05 AM 61.7°F16.5°C 54.1°F12.3°C 76% 0.9 mph SW1.4 kmh SW 5.4 mph8.7 kmh 29.88 in1011.9 mb 0.00 in0.0 mm 0.00 in0.0 mm 0.00 in0.0 mm
12:10 AM 61.5°F16.4°C 53.9°F12.2°C 76% 0.9 mph SW1.4 kmh SW 5.4 mph8.7 kmh 29.88 in1011.9 mb 0.00 in0.0 mm 0.00 in0.0 mm 0.00 in0.0 mm
12:15 AM 61.5°F16.4°C 53.9°F12.2°C 76% 1.1 mph SW1.8 kmh SW 4.5 mph7.2 kmh 29.88 in1011.9 mb 0.00 in0.0 mm 0.00 in0.0 mm 0.00 in0.0 mm
12:20 AM 61.5°F16.4°C 54.3°F12.4°C 77% 0.9 mph SW1.4 kmh SW 4.5 mph7.2 kmh 29.88 in1011.9 mb 0.00 in0.0 mm 0.00 in0.0 mm 0.00 in0.0 mm
12:25 AM 61.3°F16.3°C 54.1°F12.3°C 77% 0.4 mph SW0.6 kmh SW 3.8 mph6.1 kmh 29.87 in1011.5 mb 0.00 in0.0 mm 0.00 in0.0 mm 0.00 in0.0 mm
12:30 AM 61.3°F16.3°C 54.1°F12.3°C 77% 0.6 mph SW1.0 kmh SW 5.4 mph8.7 kmh 29.87 in1011.5 mb 0.00 in0.0 mm 0.00 in0.0 mm 0.00 in0.0 mm
12:35 AM 61.2°F16.2°C 54.3°F12.4°C 78% 1.0 mph SW1.6 kmh SW 5.4 mph8.7 kmh 29.87 in1011.5 mb 0.00 in0.0 mm 0.00 in0.0 mm 0.00 in0.0 mm
12:40 AM 61.0°F16.1°C 54.1°F12.3°C 78% 0.6 mph SW1.0 kmh SW 4.5 mph7.2 kmh 29.87 in1011.5 mb 0.00 in0.0 mm 0.00 in0.0 mm 0.00 in0.0 mm
12:45 AM 61.0°F16.1°C 54.1°F12.3°C 78% 0.5 mph SW0.8 kmh SW 4.5 mph7.2 kmh 29.87 in1011.5 mb 0.00 in0.0 mm 0.00 in0.0 mm 0.00 in0.0 mm
12:50 AM 61.0°F16.1°C 54.1°F12.3°C 78% 0.6 mph SW1.0 kmh SW 4.5 mph7.2 kmh 29.87 in1011.5 mb 0.00 in0.0 mm 0.00 in0.0 mm 0.00 in0.0 mm
12:55 AM 60.8°F16.0°C 54.3°F12.4°C 79% 0.5 mph SW0.8 kmh SW 4.5 mph7.2 kmh 29.87 in1011.5 mb 0.00 in0.0 mm 0.00 in0.0 mm 0.00 in0.0 mm
01:00 AM 60.8°F16.0°C 54.3°F12.4°C 79% 0.7 mph SW1.1 kmh SW 4.5 mph7.2 kmh 29.87 in1011.5 mb 0.00 in0.0 mm 0.00 in0.0 mm 0.00 in0.0 mm
01:05 AM 60.8°F16.0°C 54.3°F12.4°C 79% 0.8 mph SW1.3 kmh SW 3.8 mph6.1 kmh 29.87 in1011.5 mb 0.00 in0.0 mm 0.00 in0.0 mm 0.00 in0.0 mm
01:10 AM 60.8°F16.0°C 53.9°F12.2°C 78% 0.6 mph SW1.0 kmh SW 5.4 mph8.7 kmh 29.87 in1011.5 mb 0.00 in0.0 mm 0.00 in0.0 mm 0.00 in0.0 mm
01:15 AM 60.6°F15.9°C 53.7°F12.1°C 78% 0.5 mph SW0.8 kmh SW 5.4 mph8.7 kmh 29.87 in1011.5 mb 0.00 in0.0 mm 0.00 in0.0 mm 0.00 in0.0 mm
01:20 AM 60.6°F15.9°C 53.7°F12.1°C 78% 1.0 mph SSW1.6 kmh SSW 4.5 mph7.2 kmh 29.87 in1011.5 mb 0.00 in0.0 mm 0.00 in0.0 mm 0.00 in0.0 mm
01:25 AM 60.4°F15.8°C 53.6°F12.0°C 78% 1.8 mph SSW2.9 kmh SSW 5.4 mph8.7 kmh 29.87 in1011.5 mb 0.00 in0.0 mm 0.00 in0.0 mm 0.00 in0.0 mm
01:30 AM 60.3°F15.7°C 53.7°F12.1°C 79% 1.4 mph SW2.3 kmh SW 5.4 mph8.7 kmh 29.87 in1011.5 mb 0.00 in0.0 mm 0.00 in0.0 mm 0.00 in0.0 mm
01:35 AM 60.1°F15.6°C 53.6°F12.0°C 79% 1.2 mph SW1.9 kmh SW 4.5 mph7.2 kmh 29.87 in1011.5 mb 0.00 in0.0 mm 0.00 in0.0 mm 0.00 in0.0 mm
01:40 AM 60.1°F15.6°C 53.6°F12.0°C 79% 0.8 mph SW1.3 kmh SW 3.8 mph6.1 kmh 29.87 in1011.5 mb 0.00 in0.0 mm 0.00 in0.0 mm 0.00 in0.0 mm
01:45 AM 60.1°F15.6°C 53.6°F12.0°C 79% 0.4 mph SW0.6 kmh SW 4.5 mph7.2 kmh 29.87 in1011.5 mb 0.00 in0.0 mm 0.00 in0.0 mm 0.00 in0.0 mm
01:50 AM 60.3°F15.7°C 53.7°F12.1°C 79% 0.5 mph SW0.8 kmh SW 4.5 mph7.2 kmh 29.88 in1011.9 mb 0.00 in0.0 mm 0.00 in0.0 mm 0.00 in0.0 mm
01:55 AM 60.3°F15.7°C 53.4°F11.9°C 78% 0.8 mph SSW1.3 kmh SSW 4.5 mph7.2 kmh 29.87 in1011.5 mb 0.00 in0.0 mm 0.00 in0.0 mm 0.00 in0.0 mm
02:00 AM 60.1°F15.6°C 53.6°F12.0°C 79% 1.0 mph SW1.6 kmh SW 4.5 mph7.2 kmh 29.87 in1011.5 mb 0.00 in0.0 mm 0.00 in0.0 mm 0.00 in0.0 mm
02:05 AM 60.1°F15.6°C 53.2°F11.8°C 78% 1.6 mph SW2.6 kmh SW 6.0 mph9.7 kmh 29.87 in1011.5 mb 0.00 in0.0 mm 0.00 in0.0 mm 0.00 in0.0 mm
02:10 AM 59.9°F15.5°C 53.0°F11.7°C 78% 1.6 mph SW2.6 kmh SW 6.0 mph9.7 kmh 29.87 in1011.5 mb 0.00 in0.0 mm 0.00 in0.0 mm 0.00 in0.0 mm
02:15 AM 59.7°F15.4°C 53.2°F11.8°C 79% 1.1 mph SW1.8 kmh SW 5.4 mph8.7 kmh 29.87 in1011.5 mb 0.00 in0.0 mm 0.00 in0.0 mm 0.00 in0.0 mm
02:20 AM 59.7°F15.4°C 53.2°F11.8°C 79% 1.3 mph SW2.1 kmh SW 5.4 mph8.7 kmh 29.86 in1011.2 mb 0.00 in0.0 mm 0.00 in0.0 mm 0.00 in0.0 mm
02:25 AM 59.7°F15.4°C 53.2°F11.8°C 79% 1.0 mph SW1.6 kmh SW 4.5 mph7.2 kmh 29.87 in1011.5 mb 0.00 in0.0 mm 0.00 in0.0 mm 0.00 in0.0 mm
02:30 AM 59.9°F15.5°C 53.4°F11.9°C 79% 0.6 mph SW1.0 kmh SW 4.5 mph7.2 kmh 29.87 in1011.5 mb 0.00 in0.0 mm 0.00 in0.0 mm 0.00 in0.0 mm
02:35 AM 59.9°F15.5°C 53.4°F11.9°C 79% 0.7 mph SW1.1 kmh SW 4.5 mph7.2 kmh 29.87 in1011.5 mb 0.00 in0.0 mm 0.00 in0.0 mm 0.00 in0.0 mm
02:40 AM 59.9°F15.5°C 53.4°F11.9°C 79% 1.1 mph SW1.8 kmh SW 4.5 mph7.2 kmh 29.87 in1011.5 mb 0.00 in0.0 mm 0.00 in0.0 mm 0.00 in0.0 mm
02:45 AM 59.9°F15.5°C 53.4°F11.9°C 79% 1.1 mph SW1.8 kmh SW 4.5 mph7.2 kmh 29.87 in1011.5 mb 0.00 in0.0 mm 0.00 in0.0 mm 0.00 in0.0 mm
02:50 AM 59.9°F15.5°C 53.7°F12.1°C 80% 1.1 mph SW1.8 kmh SW 5.4 mph8.7 kmh 29.87 in1011.5 mb 0.00 in0.0 mm 0.00 in0.0 mm 0.00 in0.0 mm
02:55 AM 59.9°F15.5°C 53.4°F11.9°C 79% 1.5 mph SW2.4 kmh SW 5.4 mph8.7 kmh 29.87 in1011.5 mb 0.00 in0.0 mm 0.00 in0.0 mm 0.00 in0.0 mm
03:00 AM 59.9°F15.5°C 53.4°F11.9°C 79% 0.9 mph WSW1.4 kmh WSW 5.4 mph8.7 kmh 29.87 in1011.5 mb 0.00 in0.0 mm 0.00 in0.0 mm 0.00 in0.0 mm
03:05 AM 59.7°F15.4°C 53.6°F12.0°C 80% 0.3 mph SW0.5 kmh SW 3.8 mph6.1 kmh 29.87 in1011.5 mb 0.00 in0.0 mm 0.00 in0.0 mm 0.00 in0.0 mm
03:10 AM 59.9°F15.5°C 53.7°F12.1°C 80% 0.6 mph WSW1.0 kmh WSW 5.4 mph8.7 kmh 29.87 in1011.5 mb 0.00 in0.0 mm 0.00 in0.0 mm 0.00 in0.0 mm
03:15 AM 59.9°F15.5°C 53.7°F12.1°C 80% 1.1 mph WSW1.8 kmh WSW 5.4 mph8.7 kmh 29.87 in1011.5 mb 0.00 in0.0 mm 0.00 in0.0 mm 0.00 in0.0 mm
03:20 AM 59.9°F15.5°C 53.7°F12.1°C 80% 0.8 mph SW1.3 kmh SW 5.4 mph8.7 kmh 29.87 in1011.5 mb 0.00 in0.0 mm 0.00 in0.0 mm 0.00 in0.0 mm
03:25 AM 59.7°F15.4°C 53.6°F12.0°C 80% 0.4 mph SW0.6 kmh SW 4.5 mph7.2 kmh 29.87 in1011.5 mb 0.00 in0.0 mm 0.00 in0.0 mm 0.00 in0.0 mm
03:30 AM 59.7°F15.4°C 53.6°F12.0°C 80% 0.5 mph WSW0.8 kmh WSW 3.8 mph6.1 kmh 29.87 in1011.5 mb 0.00 in0.0 mm 0.00 in0.0 mm 0.00 in0.0 mm
03:35 AM 59.7°F15.4°C 53.6°F12.0°C 80% 0.5 mph WSW0.8 kmh WSW 3.8 mph6.1 kmh 29.87 in1011.5 mb 0.00 in0.0 mm 0.00 in0.0 mm 0.00 in0.0 mm
03:40 AM 59.7°F15.4°C 53.6°F12.0°C 80% 0.4 mph WSW0.6 kmh WSW 3.8 mph6.1 kmh 29.87 in1011.5 mb 0.00 in0.0 mm 0.00 in0.0 mm 0.00 in0.0 mm
03:45 AM 59.7°F15.4°C 53.2°F11.8°C 79% 0.6 mph SW1.0 kmh SW 3.8 mph6.1 kmh 29.87 in1011.5 mb 0.00 in0.0 mm 0.00 in0.0 mm 0.00 in0.0 mm
03:50 AM 59.7°F15.4°C 53.2°F11.8°C 79% 0.7 mph SW1.1 kmh SW 3.8 mph6.1 kmh 29.87 in1011.5 mb 0.00 in0.0 mm 0.00 in0.0 mm 0.00 in0.0 mm
03:55 AM 59.7°F15.4°C 53.2°F11.8°C 79% 0.6 mph SW1.0 kmh SW 3.8 mph6.1 kmh 29.87 in1011.5 mb 0.00 in0.0 mm 0.00 in0.0 mm 0.00 in0.0 mm
04:00 AM 59.7°F15.4°C 53.2°F11.8°C 79% 0.9 mph WSW1.4 kmh WSW 4.5 mph7.2 kmh 29.87 in1011.5 mb 0.00 in0.0 mm 0.00 in0.0 mm 0.00 in0.0 mm
04:05 AM 59.7°F15.4°C 53.2°F11.8°C 79% 1.1 mph WSW1.8 kmh WSW 4.5 mph7.2 kmh 29.87 in1011.5 mb 0.00 in0.0 mm 0.00 in0.0 mm 0.00 in0.0 mm
04:10 AM 59.7°F15.4°C 52.9°F11.6°C 78% 1.0 mph SW1.6 kmh SW 5.4 mph8.7 kmh 29.88 in1011.9 mb 0.00 in0.0 mm 0.00 in0.0 mm 0.00 in0.0 mm
04:15 AM 59.5°F15.3°C 53.0°F11.7°C 79% 0.5 mph SW0.8 kmh SW 5.4 mph8.7 kmh 29.87 in1011.5 mb 0.00 in0.0 mm 0.00 in0.0 mm 0.00 in0.0 mm
04:20 AM 59.5°F15.3°C 53.0°F11.7°C 79% Calm Calm 3.1 mph5.0 kmh 29.87 in1011.5 mb 0.00 in0.0 mm 0.00 in0.0 mm 0.00 in0.0 mm
04:25 AM 59.5°F15.3°C 53.0°F11.7°C 79% 0.2 mph SW0.3 kmh SW 3.8 mph6.1 kmh 29.88 in1011.9 mb 0.00 in0.0 mm 0.00 in0.0 mm 0.00 in0.0 mm
04:30 AM 59.5°F15.3°C 52.7°F11.5°C 78% 0.3 mph SW0.5 kmh SW 3.8 mph6.1 kmh 29.88 in1011.9 mb 0.00 in0.0 mm 0.00 in0.0 mm 0.00 in0.0 mm
04:35 AM 59.5°F15.3°C 52.7°F11.5°C 78% 0.3 mph WSW0.5 kmh WSW 6.9 mph11.1 kmh 29.87 in1011.5 mb 0.00 in0.0 mm 0.00 in0.0 mm 0.00 in0.0 mm
04:40 AM 59.5°F15.3°C 52.7°F11.5°C 78% 1.1 mph WSW1.8 kmh WSW 6.9 mph11.1 kmh 29.87 in1011.5 mb 0.00 in0.0 mm 0.00 in0.0 mm 0.00 in0.0 mm
04:45 AM 59.7°F15.4°C 52.9°F11.6°C 78% 1.3 mph WSW2.1 kmh WSW 5.4 mph8.7 kmh 29.88 in1011.9 mb 0.00 in0.0 mm 0.00 in0.0 mm 0.00 in0.0 mm
04:50 AM 59.7°F15.4°C 52.5°F11.4°C 77% 1.1 mph SW1.8 kmh SW 4.5 mph7.2 kmh 29.87 in1011.5 mb 0.00 in0.0 mm 0.00 in0.0 mm 0.00 in0.0 mm
04:55 AM 59.5°F15.3°C 52.3°F11.3°C 77% 1.2 mph SW1.9 kmh SW 5.4 mph8.7 kmh 29.88 in1011.9 mb 0.00 in0.0 mm 0.00 in0.0 mm 0.00 in0.0 mm
05:00 AM 59.4°F15.2°C 52.5°F11.4°C 78% 1.1 mph SW1.8 kmh SW 5.4 mph8.7 kmh 29.88 in1011.9 mb 0.00 in0.0 mm 0.00 in0.0 mm 0.00 in0.0 mm
05:05 AM 59.2°F15.1°C 52.7°F11.5°C 79% 1.0 mph SW1.6 kmh SW 4.5 mph7.2 kmh 29.88 in1011.9 mb 0.00 in0.0 mm 0.00 in0.0 mm 0.00 in0.0 mm
05:10 AM 59.0°F15.0°C 52.5°F11.4°C 79% 1.0 mph SW1.6 kmh SW 4.5 mph7.2 kmh 29.88 in1011.9 mb 0.00 in0.0 mm 0.00 in0.0 mm 0.00 in0.0 mm
05:15 AM 58.8°F14.9°C 52.7°F11.5°C 80% 1.0 mph SW1.6 kmh SW 4.5 mph7.2 kmh 29.88 in1011.9 mb 0.00 in0.0 mm 0.00 in0.0 mm 0.00 in0.0 mm
05:20 AM 58.6°F14.8°C 52.5°F11.4°C 80% 0.6 mph SW1.0 kmh SW 3.8 mph6.1 kmh 29.88 in1011.9 mb 0.00 in0.0 mm 0.00 in0.0 mm 0.00 in0.0 mm
05:25 AM 58.6°F14.8°C 52.8°F11.6°C 81% 0.3 mph SW0.5 kmh SW 3.1 mph5.0 kmh 29.89 in1012.2 mb 0.00 in0.0 mm 0.00 in0.0 mm 0.00 in0.0 mm
05:30 AM 58.5°F14.7°C 52.7°F11.5°C 81% 0.2 mph SW0.3 kmh SW 3.1 mph5.0 kmh 29.89 in1012.2 mb 0.00 in0.0 mm 0.00 in0.0 mm 0.00 in0.0 mm
05:35 AM 58.5°F14.7°C 52.7°F11.5°C 81% 0.3 mph SW0.5 kmh SW 3.1 mph5.0 kmh 29.88 in1011.9 mb 0.00 in0.0 mm 0.00 in0.0 mm 0.00 in0.0 mm
05:40 AM 58.5°F14.7°C 52.7°F11.5°C 81% 0.6 mph SW1.0 kmh SW 3.1 mph5.0 kmh 29.88 in1011.9 mb 0.00 in0.0 mm 0.00 in0.0 mm 0.00 in0.0 mm
05:45 AM 58.3°F14.6°C 52.5°F11.4°C 81% 1.1 mph WSW1.8 kmh WSW 5.4 mph8.7 kmh 29.89 in1012.2 mb 0.00 in0.0 mm 0.00 in0.0 mm 0.00 in0.0 mm
05:50 AM 58.3°F14.6°C 52.5°F11.4°C 81% 1.0 mph SW1.6 kmh SW 5.4 mph8.7 kmh 29.89 in1012.2 mb 0.00 in0.0 mm 0.00 in0.0 mm 0.00 in0.0 mm
05:55 AM 58.3°F14.6°C 52.8°F11.6°C 82% 0.4 mph SW0.6 kmh SW 3.1 mph5.0 kmh 29.89 in1012.2 mb 0.00 in0.0 mm 0.00 in0.0 mm 0.00 in0.0 mm
06:00 AM 58.3°F14.6°C 52.5°F11.4°C 81% 0.8 mph SW1.3 kmh SW 4.5 mph7.2 kmh 29.89 in1012.2 mb 0.00 in0.0 mm 0.00 in0.0 mm 0.00 in0.0 mm
06:05 AM 58.3°F14.6°C 52.5°F11.4°C 81% 1.5 mph SW2.4 kmh SW 5.4 mph8.7 kmh 29.89 in1012.2 mb 0.00 in0.0 mm 0.00 in0.0 mm 0.00 in0.0 mm
06:10 AM 58.3°F14.6°C 52.5°F11.4°C 81% 1.6 mph SW2.6 kmh SW 6.9 mph11.1 kmh 29.89 in1012.2 mb 0.00 in0.0 mm 0.00 in0.0 mm 0.00 in0.0 mm
06:15 AM 58.1°F14.5°C 52.3°F11.3°C 81% 1.6 mph SW2.6 kmh SW 6.9 mph11.1 kmh 29.90 in1012.5 mb 0.00 in0.0 mm 0.00 in0.0 mm 0.00 in0.0 mm
06:20 AM 58.3°F14.6°C 52.5°F11.4°C 81% 1.7 mph SW2.7 kmh SW 4.5 mph7.2 kmh 29.90 in1012.5 mb 0.00 in0.0 mm 0.00 in0.0 mm 0.00 in0.0 mm
06:25 AM 58.3°F14.6°C 52.1°F11.2°C 80% 1.9 mph SW3.1 kmh SW 5.4 mph8.7 kmh 29.89 in1012.2 mb 0.00 in0.0 mm 0.00 in0.0 mm 0.00 in0.0 mm
06:30 AM 58.5°F14.7°C 52.3°F11.3°C 80% 1.6 mph SW2.6 kmh SW 5.4 mph8.7 kmh 29.90 in1012.5 mb 0.00 in0.0 mm 0.00 in0.0 mm 0.00 in0.0 mm
06:35 AM 58.5°F14.7°C 52.3°F11.3°C 80% 1.5 mph SW2.4 kmh SW 6.0 mph9.7 kmh 29.90 in1012.5 mb 0.00 in0.0 mm 0.00 in0.0 mm 0.00 in0.0 mm
06:40 AM 58.6°F14.8°C 52.5°F11.4°C 80% 1.6 mph SW2.6 kmh SW 6.9 mph11.1 kmh 29.90 in1012.5 mb 0.00 in0.0 mm 0.00 in0.0 mm 0.00 in0.0 mm
06:45 AM 58.6°F14.8°C 52.5°F11.4°C 80% 1.4 mph SW2.3 kmh SW 6.9 mph11.1 kmh 29.90 in1012.5 mb 0.00 in0.0 mm 0.00 in0.0 mm 0.00 in0.0 mm
06:50 AM 59.0°F15.0°C 52.9°F11.6°C 80% 1.5 mph SW2.4 kmh SW 7.6 mph12.2 kmh 29.90 in1012.5 mb 0.00 in0.0 mm 0.00 in0.0 mm 0.00 in0.0 mm
06:55 AM 59.4°F15.2°C 53.2°F11.8°C 80% 1.4 mph SW2.3 kmh SW 7.6 mph12.2 kmh 29.90 in1012.5 mb 0.00 in0.0 mm 0.00 in0.0 mm 0.00 in0.0 mm
07:00 AM 59.7°F15.4°C 53.2°F11.8°C 79% 1.0 mph SW1.6 kmh SW 5.4 mph8.7 kmh 29.90 in1012.5 mb 0.00 in0.0 mm 0.00 in0.0 mm 0.00 in0.0 mm
07:05 AM 59.9°F15.5°C 53.0°F11.7°C 78% 1.2 mph WSW1.9 kmh WSW 5.4 mph8.7 kmh 29.90 in1012.5 mb 0.00 in0.0 mm 0.00 in0.0 mm 0.00 in0.0 mm
07:10 AM 60.4°F15.8°C 53.6°F12.0°C 78% 1.1 mph WSW1.8 kmh WSW 4.5 mph7.2 kmh 29.90 in1012.5 mb 0.00 in0.0 mm 0.00 in0.0 mm 0.00 in0.0 mm
07:15 AM 61.0°F16.1°C 53.7°F12.1°C 77% 1.0 mph WSW1.6 kmh WSW 4.5 mph7.2 kmh 29.90 in1012.5 mb 0.00 in0.0 mm 0.00 in0.0 mm 0.00 in0.0 mm
07:20 AM 61.5°F16.4°C 53.9°F12.2°C 76% 1.3 mph W2.1 kmh W 4.5 mph7.2 kmh 29.90 in1012.5 mb 0.00 in0.0 mm 0.00 in0.0 mm 0.00 in0.0 mm
07:25 AM 61.9°F16.6°C 53.9°F12.2°C 75% 1.1 mph W1.8 kmh W 4.5 mph7.2 kmh 29.90 in1012.5 mb 0.00 in0.0 mm 0.00 in0.0 mm 0.00 in0.0 mm
07:30 AM 62.1°F16.7°C 53.7°F12.1°C 74% 1.2 mph WSW1.9 kmh WSW 6.0 mph9.7 kmh 29.90 in1012.5 mb 0.00 in0.0 mm 0.00 in0.0 mm 0.00 in0.0 mm
07:35 AM 62.4°F16.9°C 54.0°F12.2°C 74% 1.6 mph WSW2.6 kmh WSW 6.0 mph9.7 kmh 29.91 in1012.9 mb 0.00 in0.0 mm 0.00 in0.0 mm 0.00 in0.0 mm
07:40 AM 63.3°F17.4°C 54.2°F12.3°C 72% 1.9 mph WSW3.1 kmh WSW 7.6 mph12.2 kmh 29.91 in1012.9 mb 0.00 in0.0 mm 0.00 in0.0 mm 0.00 in0.0 mm
07:45 AM 63.7°F17.6°C 54.5°F12.5°C 72% 2.2 mph WSW3.5 kmh WSW 7.6 mph12.2 kmh 29.91 in1012.9 mb 0.00 in0.0 mm 0.00 in0.0 mm 0.00 in0.0 mm
07:50 AM 64.0°F17.8°C 54.5°F12.5°C 71% 1.8 mph W2.9 kmh W 6.9 mph11.1 kmh 29.91 in1012.9 mb 0.00 in0.0 mm 0.00 in0.0 mm 0.00 in0.0 mm
07:55 AM 64.4°F18.0°C 54.4°F12.4°C 70% 1.5 mph WSW2.4 kmh WSW 7.6 mph12.2 kmh 29.91 in1012.9 mb 0.00 in0.0 mm 0.00 in0.0 mm 0.00 in0.0 mm
08:00 AM 64.8°F18.2°C 54.8°F12.7°C 70% 1.4 mph WSW2.3 kmh WSW 7.6 mph12.2 kmh 29.91 in1012.9 mb 0.00 in0.0 mm 0.00 in0.0 mm 0.00 in0.0 mm
08:05 AM 65.1°F18.4°C 54.7°F12.6°C 69% 1.4 mph WSW2.3 kmh WSW 6.9 mph11.1 kmh 29.91 in1012.9 mb 0.00 in0.0 mm 0.00 in0.0 mm 0.00 in0.0 mm
08:10 AM 66.0°F18.9°C 52.2°F11.2°C 61% 2.1 mph WNW3.4 kmh WNW 7.6 mph12.2 kmh 29.91 in1012.9 mb 0.00 in0.0 mm 0.00 in0.0 mm 0.00 in0.0 mm
08:15 AM 66.6°F19.2°C 52.7°F11.5°C 61% 2.3 mph WNW3.7 kmh WNW 7.6 mph12.2 kmh 29.91 in1012.9 mb 0.00 in0.0 mm 0.00 in0.0 mm 0.00 in0.0 mm
08:20 AM 66.9°F19.4°C 51.7°F10.9°C 58% 2.9 mph W4.7 kmh W 9.2 mph14.8 kmh 29.92 in1013.2 mb 0.00 in0.0 mm 0.00 in0.0 mm 0.00 in0.0 mm
08:25 AM 67.8°F19.9°C 52.1°F11.2°C 57% 3.4 mph W5.5 kmh W 9.2 mph14.8 kmh 29.92 in1013.2 mb 0.00 in0.0 mm 0.00 in0.0 mm 0.00 in0.0 mm
08:30 AM 68.4°F20.2°C 53.5°F11.9°C 59% 3.0 mph W4.8 kmh W 8.3 mph13.4 kmh 29.92 in1013.2 mb 0.00 in0.0 mm 0.00 in0.0 mm 0.00 in0.0 mm
08:35 AM 68.5°F20.3°C 52.7°F11.5°C 57% 2.8 mph W4.5 kmh W 9.2 mph14.8 kmh 29.92 in1013.2 mb 0.00 in0.0 mm 0.00 in0.0 mm 0.00 in0.0 mm
08:40 AM 69.4°F20.8°C 51.6°F10.9°C 53% 3.5 mph NW5.6 kmh NW 11.4 mph18.3 kmh 29.92 in1013.2 mb 0.00 in0.0 mm 0.00 in0.0 mm 0.00 in0.0 mm
08:45 AM 69.6°F20.9°C 51.8°F11.0°C 53% 5.1 mph NW8.2 kmh NW 13.0 mph20.9 kmh 29.92 in1013.2 mb 0.00 in0.0 mm 0.00 in0.0 mm 0.00 in0.0 mm
08:50 AM 69.6°F20.9°C 51.8°F11.0°C 53% 6.2 mph NW10.0 kmh NW 13.6 mph21.9 kmh 29.92 in1013.2 mb 0.00 in0.0 mm 0.00 in0.0 mm 0.00 in0.0 mm
08:55 AM 69.8°F21.0°C 51.9°F11.1°C 53% 6.0 mph NNW9.7 kmh NNW 13.6 mph21.9 kmh 29.92 in1013.2 mb 0.00 in0.0 mm 0.00 in0.0 mm 0.00 in0.0 mm
09:00 AM 70.0°F21.1°C 52.1°F11.2°C 53% 6.1 mph N9.8 kmh N 13.6 mph21.9 kmh 29.93 in1013.5 mb 0.00 in0.0 mm 0.00 in0.0 mm 0.00 in0.0 mm
09:05 AM 70.0°F21.1°C 52.1°F11.2°C 53% 6.5 mph N10.5 kmh N 17.4 mph28.0 kmh 29.93 in1013.5 mb 0.00 in0.0 mm 0.00 in0.0 mm 0.00 in0.0 mm
09:10 AM 70.0°F21.1°C 52.1°F11.2°C 53% 6.5 mph NW10.5 kmh NW 17.4 mph28.0 kmh 29.93 in1013.5 mb 0.00 in0.0 mm 0.00 in0.0 mm 0.00 in0.0 mm
09:15 AM 70.2°F21.2°C 52.3°F11.3°C 53% 6.1 mph NW9.8 kmh NW 14.5 mph23.3 kmh 29.93 in1013.5 mb 0.00 in0.0 mm 0.00 in0.0 mm 0.00 in0.0 mm
09:20 AM 70.2°F21.2°C 52.3°F11.3°C 53% 6.2 mph NW10.0 kmh NW 15.2 mph24.5 kmh 29.93 in1013.5 mb 0.00 in0.0 mm 0.00 in0.0 mm 0.00 in0.0 mm
09:25 AM 70.0°F21.1°C 52.1°F11.2°C 53% 7.5 mph NW12.1 kmh NW 15.2 mph24.5 kmh 29.93 in1013.5 mb 0.00 in0.0 mm 0.00 in0.0 mm 0.00 in0.0 mm
09:30 AM 69.8°F21.0°C 51.9°F11.1°C 53% 8.1 mph NW13.0 kmh NW 16.8 mph27.0 kmh 29.93 in1013.5 mb 0.00 in0.0 mm 0.00 in0.0 mm 0.00 in0.0 mm
09:35 AM 70.2°F21.2°C 52.3°F11.3°C 53% 8.3 mph NW13.4 kmh NW 16.8 mph27.0 kmh 29.93 in1013.5 mb 0.00 in0.0 mm 0.00 in0.0 mm 0.00 in0.0 mm
09:40 AM 70.7°F21.5°C 52.8°F11.6°C 53% 7.3 mph NW11.7 kmh NW 15.9 mph25.6 kmh 29.93 in1013.5 mb 0.00 in0.0 mm 0.00 in0.0 mm 0.00 in0.0 mm
09:45 AM 71.1°F21.7°C 53.1°F11.7°C 53% 6.5 mph NW10.5 kmh NW 15.9 mph25.6 kmh 29.93 in1013.5 mb 0.00 in0.0 mm 0.00 in0.0 mm 0.00 in0.0 mm
09:50 AM 71.4°F21.9°C 53.4°F11.9°C 53% 5.9 mph NW9.5 kmh NW 15.9 mph25.6 kmh 29.94 in1013.9 mb 0.00 in0.0 mm 0.00 in0.0 mm 0.00 in0.0 mm
09:55 AM 71.4°F21.9°C 53.4°F11.9°C 53% 5.5 mph NW8.9 kmh NW 13.6 mph21.9 kmh 29.93 in1013.5 mb 0.00 in0.0 mm 0.00 in0.0 mm 0.00 in0.0 mm
10:00 AM 71.1°F21.7°C 53.1°F11.7°C 53% 6.8 mph NW10.9 kmh NW 14.5 mph23.3 kmh 29.94 in1013.9 mb 0.00 in0.0 mm 0.00 in0.0 mm 0.00 in0.0 mm
10:05 AM 71.1°F21.7°C 53.1°F11.7°C 53% 7.3 mph NW11.7 kmh NW 14.5 mph23.3 kmh 29.94 in1013.9 mb 0.00 in0.0 mm 0.00 in0.0 mm 0.00 in0.0 mm
10:10 AM 71.2°F21.8°C 53.3°F11.8°C 53% 7.0 mph NNW11.3 kmh NNW 14.5 mph23.3 kmh 29.94 in1013.9 mb 0.00 in0.0 mm 0.00 in0.0 mm 0.00 in0.0 mm
10:15 AM 70.9°F21.6°C 52.9°F11.6°C 53% 7.4 mph NNW11.9 kmh NNW 15.2 mph24.5 kmh 29.94 in1013.9 mb 0.00 in0.0 mm 0.00 in0.0 mm 0.00 in0.0 mm
10:20 AM 70.5°F21.4°C 52.6°F11.4°C 53% 6.7 mph NW10.8 kmh NW 15.2 mph24.5 kmh 29.94 in1013.9 mb 0.00 in0.0 mm 0.00 in0.0 mm 0.00 in0.0 mm
10:25 AM 70.5°F21.4°C 52.6°F11.4°C 53% 5.0 mph NW8.0 kmh NW 14.5 mph23.3 kmh 29.94 in1013.9 mb 0.00 in0.0 mm 0.00 in0.0 mm 0.00 in0.0 mm
10:30 AM 70.2°F21.2°C 52.3°F11.3°C 53% 5.7 mph NW9.2 kmh NW 14.5 mph23.3 kmh 29.94 in1013.9 mb 0.00 in0.0 mm 0.00 in0.0 mm 0.00 in0.0 mm
10:35 AM 70.0°F21.1°C 52.1°F11.2°C 53% 7.1 mph NNW11.4 kmh NNW 14.5 mph23.3 kmh 29.94 in1013.9 mb 0.00 in0.0 mm 0.00 in0.0 mm 0.00 in0.0 mm
10:40 AM 69.8°F21.0°C 51.9°F11.1°C 53% 7.1 mph NW11.4 kmh NW 14.5 mph23.3 kmh 29.94 in1013.9 mb 0.00 in0.0 mm 0.00 in0.0 mm 0.00 in0.0 mm
10:45 AM 70.3°F21.3°C 52.4°F11.3°C 53% 5.1 mph NW8.2 kmh NW 14.5 mph23.3 kmh 29.95 in1014.2 mb 0.00 in0.0 mm 0.00 in0.0 mm 0.00 in0.0 mm
10:50 AM 70.2°F21.2°C 52.3°F11.3°C 53% 5.9 mph NW9.5 kmh NW 13.6 mph21.9 kmh 29.95 in1014.2 mb 0.00 in0.0 mm 0.00 in0.0 mm 0.00 in0.0 mm
10:55 AM 70.0°F21.1°C 52.1°F11.2°C 53% 7.1 mph NW11.4 kmh NW 15.2 mph24.5 kmh 29.94 in1013.9 mb 0.00 in0.0 mm 0.00 in0.0 mm 0.00 in0.0 mm
11:00 AM 71.4°F21.9°C 53.4°F11.9°C 53% 5.5 mph NW8.9 kmh NW 15.9 mph25.6 kmh 29.95 in1014.2 mb 0.00 in0.0 mm 0.00 in0.0 mm 0.00 in0.0 mm
11:05 AM 72.1°F22.3°C 54.1°F12.3°C 53% 5.7 mph NW9.2 kmh NW 15.9 mph25.6 kmh 29.95 in1014.2 mb 0.00 in0.0 mm 0.00 in0.0 mm 0.00 in0.0 mm
11:10 AM 72.1°F22.3°C 54.1°F12.3°C 53% 7.5 mph NW12.1 kmh NW 16.8 mph27.0 kmh 29.95 in1014.2 mb 0.00 in0.0 mm 0.00 in0.0 mm 0.00 in0.0 mm
11:15 AM 72.1°F22.3°C 54.1°F12.3°C 53% 7.8 mph NW12.6 kmh NW 16.8 mph27.0 kmh 29.95 in1014.2 mb 0.00 in0.0 mm 0.00 in0.0 mm 0.00 in0.0 mm
11:20 AM 72.9°F22.7°C 54.8°F12.7°C 53% 6.0 mph NNW9.7 kmh NNW 15.2 mph24.5 kmh 29.95 in1014.2 mb 0.00 in0.0 mm 0.00 in0.0 mm 0.00 in0.0 mm
11:25 AM 73.4°F23.0°C 55.3°F12.9°C 53% 3.9 mph NNW6.3 kmh NNW 13.0 mph20.9 kmh 29.95 in1014.2 mb 0.00 in0.0 mm 0.00 in0.0 mm 0.00 in0.0 mm
11:30 AM 73.6°F23.1°C 55.4°F13.0°C 53% 5.0 mph NNW8.0 kmh NNW 14.5 mph23.3 kmh 29.94 in1013.9 mb 0.00 in0.0 mm 0.00 in0.0 mm 0.00 in0.0 mm
11:35 AM 73.8°F23.2°C 55.6°F13.1°C 53% 6.8 mph NW10.9 kmh NW 14.5 mph23.3 kmh 29.95 in1014.2 mb 0.00 in0.0 mm 0.00 in0.0 mm 0.00 in0.0 mm
11:40 AM 73.6°F23.1°C 55.4°F13.0°C 53% 7.1 mph N11.4 kmh N 15.9 mph25.6 kmh 29.94 in1013.9 mb 0.00 in0.0 mm 0.00 in0.0 mm 0.00 in0.0 mm
11:45 AM 73.8°F23.2°C 55.6°F13.1°C 53% 7.6 mph NNW12.2 kmh NNW 15.9 mph25.6 kmh 29.94 in1013.9 mb 0.00 in0.0 mm 0.00 in0.0 mm 0.00 in0.0 mm
11:50 AM 74.1°F23.4°C 55.9°F13.3°C 53% 6.0 mph NW9.7 kmh NW 15.9 mph25.6 kmh 29.94 in1013.9 mb 0.00 in0.0 mm 0.00 in0.0 mm 0.00 in0.0 mm
11:55 AM 73.6°F23.1°C 55.4°F13.0°C 53% 4.1 mph WNW6.6 kmh WNW 12.1 mph19.5 kmh 29.94 in1013.9 mb 0.00 in0.0 mm 0.00 in0.0 mm 0.00 in0.0 mm
12:00 PM 72.5°F22.5°C 54.4°F12.4°C 53% 5.2 mph NW8.4 kmh NW 13.0 mph20.9 kmh 29.94 in1013.9 mb 0.00 in0.0 mm 0.00 in0.0 mm 0.00 in0.0 mm
12:05 PM 71.8°F22.1°C 53.8°F12.1°C 53% 6.7 mph NW10.8 kmh NW 14.5 mph23.3 kmh 29.94 in1013.9 mb 0.00 in0.0 mm 0.00 in0.0 mm 0.00 in0.0 mm
12:10 PM 71.2°F21.8°C 53.3°F11.8°C 53% 5.6 mph NW9.0 kmh NW 14.5 mph23.3 kmh 29.93 in1013.5 mb 0.00 in0.0 mm 0.00 in0.0 mm 0.00 in0.0 mm
12:15 PM 72.1°F22.3°C 54.1°F12.3°C 53% 4.2 mph NW6.8 kmh NW 14.5 mph23.3 kmh 29.93 in1013.5 mb 0.00 in0.0 mm 0.00 in0.0 mm 0.00 in0.0 mm
12:20 PM 72.9°F22.7°C 54.8°F12.7°C 53% 4.2 mph NW6.8 kmh NW 14.5 mph23.3 kmh 29.93 in1013.5 mb 0.00 in0.0 mm 0.00 in0.0 mm 0.00 in0.0 mm
12:25 PM 74.1°F23.4°C 55.9°F13.3°C 53% 4.4 mph NW7.1 kmh NW 12.1 mph19.5 kmh 29.94 in1013.9 mb 0.00 in0.0 mm 0.00 in0.0 mm 0.00 in0.0 mm
12:30 PM 74.7°F23.7°C 56.4°F13.6°C 53% 4.4 mph NW7.1 kmh NW 12.1 mph19.5 kmh 29.93 in1013.5 mb 0.00 in0.0 mm 0.00 in0.0 mm 0.00 in0.0 mm
12:35 PM 75.2°F24.0°C 56.9°F13.8°C 53% 3.9 mph NW6.3 kmh NW 12.1 mph19.5 kmh 29.93 in1013.5 mb 0.00 in0.0 mm 0.00 in0.0 mm 0.00 in0.0 mm
12:40 PM 75.7°F24.3°C 57.4°F14.1°C 53% 4.6 mph NW7.4 kmh NW 14.5 mph23.3 kmh 29.94 in1013.9 mb 0.00 in0.0 mm 0.00 in0.0 mm 0.00 in0.0 mm
12:45 PM 75.7°F24.3°C 57.4°F14.1°C 53% 5.5 mph WNW8.9 kmh WNW 14.5 mph23.3 kmh 29.93 in1013.5 mb 0.00 in0.0 mm 0.00 in0.0 mm 0.00 in0.0 mm
12:50 PM 75.6°F24.2°C 57.3°F14.1°C 53% 5.2 mph WNW8.4 kmh WNW 12.1 mph19.5 kmh 29.93 in1013.5 mb 0.00 in0.0 mm 0.00 in0.0 mm 0.00 in0.0 mm
12:55 PM 75.6°F24.2°C 57.3°F14.1°C 53% 5.6 mph NW9.0 kmh NW 15.2 mph24.5 kmh 29.93 in1013.5 mb 0.00 in0.0 mm 0.00 in0.0 mm 0.00 in0.0 mm
01:00 PM 75.6°F24.2°C 57.3°F14.1°C 53% 5.6 mph NW9.0 kmh NW 15.2 mph24.5 kmh 29.93 in1013.5 mb 0.00 in0.0 mm 0.00 in0.0 mm 0.00 in0.0 mm
01:05 PM 75.9°F24.4°C 57.6°F14.2°C 53% 4.4 mph WNW7.1 kmh WNW 13.6 mph21.9 kmh 29.93 in1013.5 mb 0.00 in0.0 mm 0.00 in0.0 mm 0.00 in0.0 mm
01:10 PM 76.3°F24.6°C 57.9°F14.4°C 53% 4.8 mph NW7.7 kmh NW 13.6 mph21.9 kmh 29.93 in1013.5 mb 0.00 in0.0 mm 0.00 in0.0 mm 0.00 in0.0 mm
01:15 PM 76.6°F24.8°C 58.3°F14.6°C 53% 5.5 mph NW8.9 kmh NW 14.5 mph23.3 kmh 29.93 in1013.5 mb 0.00 in0.0 mm 0.00 in0.0 mm 0.00 in0.0 mm
01:20 PM 76.3°F24.6°C 57.9°F14.4°C 53% 4.1 mph NW6.6 kmh NW 14.5 mph23.3 kmh 29.93 in1013.5 mb 0.00 in0.0 mm 0.00 in0.0 mm 0.00 in0.0 mm
01:25 PM 76.3°F24.6°C 57.9°F14.4°C 53% 5.1 mph NW8.2 kmh NW 14.5 mph23.3 kmh 29.93 in1013.5 mb 0.00 in0.0 mm 0.00 in0.0 mm 0.00 in0.0 mm
01:30 PM 76.3°F24.6°C 57.9°F14.4°C 53% 6.5 mph NNW10.5 kmh NNW 14.5 mph23.3 kmh 29.93 in1013.5 mb 0.00 in0.0 mm 0.00 in0.0 mm 0.00 in0.0 mm
01:35 PM 76.3°F24.6°C 57.9°F14.4°C 53% 6.7 mph NW10.8 kmh NW 17.4 mph28.0 kmh 29.93 in1013.5 mb 0.00 in0.0 mm 0.00 in0.0 mm 0.00 in0.0 mm
01:40 PM 76.5°F24.7°C 58.1°F14.5°C 53% 6.8 mph NW10.9 kmh NW 17.4 mph28.0 kmh 29.93 in1013.5 mb 0.00 in0.0 mm 0.00 in0.0 mm 0.00 in0.0 mm
01:45 PM 76.3°F24.6°C 57.9°F14.4°C 53% 5.2 mph NW8.4 kmh NW 13.0 mph20.9 kmh 29.93 in1013.5 mb 0.00 in0.0 mm 0.00 in0.0 mm 0.00 in0.0 mm
01:50 PM 76.3°F24.6°C 57.9°F14.4°C 53% 5.9 mph NW9.5 kmh NW 15.2 mph24.5 kmh 29.93 in1013.5 mb 0.00 in0.0 mm 0.00 in0.0 mm 0.00 in0.0 mm
01:55 PM 76.3°F24.6°C 57.9°F14.4°C 53% 7.2 mph NNW11.6 kmh NNW 15.2 mph24.5 kmh 29.93 in1013.5 mb 0.00 in0.0 mm 0.00 in0.0 mm 0.00 in0.0 mm
02:00 PM 75.9°F24.4°C 57.6°F14.2°C 53% 7.2 mph NNW11.6 kmh NNW 15.2 mph24.5 kmh 29.93 in1013.5 mb 0.00 in0.0 mm 0.00 in0.0 mm 0.00 in0.0 mm
02:05 PM 76.3°F24.6°C 57.9°F14.4°C 53% 6.3 mph NW10.1 kmh NW 14.5 mph23.3 kmh 29.93 in1013.5 mb 0.00 in0.0 mm 0.00 in0.0 mm 0.00 in0.0 mm
02:10 PM 76.3°F24.6°C 57.9°F14.4°C 53% 6.4 mph NNW10.3 kmh NNW 15.2 mph24.5 kmh 29.93 in1013.5 mb 0.00 in0.0 mm 0.00 in0.0 mm 0.00 in0.0 mm
02:15 PM 76.6°F24.8°C 58.3°F14.6°C 53% 7.4 mph N11.9 kmh N 16.8 mph27.0 kmh 29.92 in1013.2 mb 0.00 in0.0 mm 0.00 in0.0 mm 0.00 in0.0 mm
02:20 PM 76.6°F24.8°C 58.3°F14.6°C 53% 6.9 mph NNW11.1 kmh NNW 16.8 mph27.0 kmh 29.93 in1013.5 mb 0.00 in0.0 mm 0.00 in0.0 mm 0.00 in0.0 mm
02:25 PM 76.5°F24.7°C 58.1°F14.5°C 53% 6.3 mph NW10.1 kmh NW 13.6 mph21.9 kmh 29.93 in1013.5 mb 0.00 in0.0 mm 0.00 in0.0 mm 0.00 in0.0 mm
02:30 PM 77.0°F25.0°C 58.6°F14.8°C 53% 5.4 mph NW8.7 kmh NW 13.6 mph21.9 kmh 29.92 in1013.2 mb 0.00 in0.0 mm 0.00 in0.0 mm 0.00 in0.0 mm
02:35 PM 77.0°F25.0°C 58.6°F14.8°C 53% 5.6 mph NW9.0 kmh NW 15.2 mph24.5 kmh 29.92 in1013.2 mb 0.00 in0.0 mm 0.00 in0.0 mm 0.00 in0.0 mm
02:40 PM 76.8°F24.9°C 58.4°F14.7°C 53% 6.0 mph NW9.7 kmh NW 15.2 mph24.5 kmh 29.92 in1013.2 mb 0.00 in0.0 mm 0.00 in0.0 mm 0.00 in0.0 mm
02:45 PM 77.0°F25.0°C 58.6°F14.8°C 53% 6.1 mph NNW9.8 kmh NNW 15.2 mph24.5 kmh 29.92 in1013.2 mb 0.00 in0.0 mm 0.00 in0.0 mm 0.00 in0.0 mm
02:50 PM 77.0°F25.0°C 58.6°F14.8°C 53% 6.8 mph NNW10.9 kmh NNW 15.9 mph25.6 kmh 29.92 in1013.2 mb 0.00 in0.0 mm 0.00 in0.0 mm 0.00 in0.0 mm
02:55 PM 76.8°F24.9°C 58.4°F14.7°C 53% 7.0 mph NW11.3 kmh NW 15.9 mph25.6 kmh 29.92 in1013.2 mb 0.00 in0.0 mm 0.00 in0.0 mm 0.00 in0.0 mm
03:00 PM 76.8°F24.9°C 58.4°F14.7°C 53% 7.3 mph NW11.7 kmh NW 15.2 mph24.5 kmh 29.92 in1013.2 mb 0.00 in0.0 mm 0.00 in0.0 mm 0.00 in0.0 mm
03:05 PM 76.6°F24.8°C 58.3°F14.6°C 53% 8.6 mph NW13.8 kmh NW 15.9 mph25.6 kmh 29.92 in1013.2 mb 0.00 in0.0 mm 0.00 in0.0 mm 0.00 in0.0 mm
03:10 PM 76.3°F24.6°C 57.9°F14.4°C 53% 8.3 mph NW13.4 kmh NW 15.9 mph25.6 kmh 29.91 in1012.9 mb 0.00 in0.0 mm 0.00 in0.0 mm 0.00 in0.0 mm
03:15 PM 76.6°F24.8°C 58.3°F14.6°C 53% 7.2 mph NW11.6 kmh NW 15.9 mph25.6 kmh 29.91 in1012.9 mb 0.00 in0.0 mm 0.00 in0.0 mm 0.00 in0.0 mm
03:20 PM 76.5°F24.7°C 58.1°F14.5°C 53% 7.7 mph NW12.4 kmh NW 15.2 mph24.5 kmh 29.91 in1012.9 mb 0.00 in0.0 mm 0.00 in0.0 mm 0.00 in0.0 mm
03:25 PM 76.5°F24.7°C 58.1°F14.5°C 53% 7.4 mph NW11.9 kmh NW 15.2 mph24.5 kmh 29.91 in1012.9 mb 0.00 in0.0 mm 0.00 in0.0 mm 0.00 in0.0 mm
03:30 PM 76.1°F24.5°C 57.8°F14.3°C 53% 7.6 mph NW12.2 kmh NW 14.5 mph23.3 kmh 29.91 in1012.9 mb 0.00 in0.0 mm 0.00 in0.0 mm 0.00 in0.0 mm
03:35 PM 76.3°F24.6°C 57.9°F14.4°C 53% 7.2 mph NW11.6 kmh NW 14.5 mph23.3 kmh 29.91 in1012.9 mb 0.00 in0.0 mm 0.00 in0.0 mm 0.00 in0.0 mm
03:40 PM 76.6°F24.8°C 58.3°F14.6°C 53% 5.8 mph NW9.3 kmh NW 13.6 mph21.9 kmh 29.91 in1012.9 mb 0.00 in0.0 mm 0.00 in0.0 mm 0.00 in0.0 mm
03:45 PM 76.5°F24.7°C 58.1°F14.5°C 53% 6.7 mph NW10.8 kmh NW 15.9 mph25.6 kmh 29.91 in1012.9 mb 0.00 in0.0 mm 0.00 in0.0 mm 0.00 in0.0 mm
03:50 PM 76.3°F24.6°C 57.9°F14.4°C 53% 7.2 mph NW11.6 kmh NW 15.9 mph25.6 kmh 29.91 in1012.9 mb 0.00 in0.0 mm 0.00 in0.0 mm 0.00 in0.0 mm
03:55 PM 75.9°F24.4°C 57.6°F14.2°C 53% 7.6 mph NW12.2 kmh NW 14.5 mph23.3 kmh 29.91 in1012.9 mb 0.00 in0.0 mm 0.00 in0.0 mm 0.00 in0.0 mm
04:00 PM 75.7°F24.3°C 57.4°F14.1°C 53% 7.5 mph NW12.1 kmh NW 14.5 mph23.3 kmh 29.91 in1012.9 mb 0.00 in0.0 mm 0.00 in0.0 mm 0.00 in0.0 mm
04:05 PM 75.7°F24.3°C 57.4°F14.1°C 53% 6.9 mph NW11.1 kmh NW 13.6 mph21.9 kmh 29.92 in1013.2 mb 0.00 in0.0 mm 0.00 in0.0 mm 0.00 in0.0 mm
04:10 PM 75.7°F24.3°C 57.4°F14.1°C 53% 7.4 mph NW11.9 kmh NW 15.2 mph24.5 kmh 29.92 in1013.2 mb 0.00 in0.0 mm 0.00 in0.0 mm 0.00 in0.0 mm
04:15 PM 75.9°F24.4°C 57.6°F14.2°C 53% 6.7 mph NW10.8 kmh NW 15.2 mph24.5 kmh 29.92 in1013.2 mb 0.00 in0.0 mm 0.00 in0.0 mm 0.00 in0.0 mm
04:20 PM 76.1°F24.5°C 57.8°F14.3°C 53% 7.3 mph NNW11.7 kmh NNW 15.9 mph25.6 kmh 29.92 in1013.2 mb 0.00 in0.0 mm 0.00 in0.0 mm 0.00 in0.0 mm
04:25 PM 75.9°F24.4°C 57.6°F14.2°C 53% 7.8 mph NNW12.6 kmh NNW 15.9 mph25.6 kmh 29.92 in1013.2 mb 0.00 in0.0 mm 0.00 in0.0 mm 0.00 in0.0 mm
04:30 PM 76.1°F24.5°C 57.8°F14.3°C 53% 6.4 mph NW10.3 kmh NW 15.9 mph25.6 kmh 29.93 in1013.5 mb 0.00 in0.0 mm 0.00 in0.0 mm 0.00 in0.0 mm
04:35 PM 76.1°F24.5°C 57.8°F14.3°C 53% 6.6 mph NW10.6 kmh NW 13.6 mph21.9 kmh 29.93 in1013.5 mb 0.00 in0.0 mm 0.00 in0.0 mm 0.00 in0.0 mm
04:40 PM 75.7°F24.3°C 57.4°F14.1°C 53% 7.3 mph NNW11.7 kmh NNW 17.4 mph28.0 kmh 29.92 in1013.2 mb 0.00 in0.0 mm 0.00 in0.0 mm 0.00 in0.0 mm
04:45 PM 75.6°F24.2°C 57.3°F14.1°C 53% 7.2 mph NNW11.6 kmh NNW 17.4 mph28.0 kmh 29.93 in1013.5 mb 0.00 in0.0 mm 0.00 in0.0 mm 0.00 in0.0 mm
04:50 PM 75.4°F24.1°C 57.1°F13.9°C 53% 7.9 mph NNW12.7 kmh NNW 17.4 mph28.0 kmh 29.92 in1013.2 mb 0.00 in0.0 mm 0.00 in0.0 mm 0.00 in0.0 mm
04:55 PM 74.8°F23.8°C 56.6°F13.7°C 53% 8.9 mph NNW14.3 kmh NNW 15.9 mph25.6 kmh 29.93 in1013.5 mb 0.00 in0.0 mm 0.00 in0.0 mm 0.00 in0.0 mm
05:00 PM 74.5°F23.6°C 56.3°F13.5°C 53% 8.0 mph NW12.9 kmh NW 15.2 mph24.5 kmh 29.93 in1013.5 mb 0.00 in0.0 mm 0.00 in0.0 mm 0.00 in0.0 mm
05:05 PM 74.3°F23.5°C 56.1°F13.4°C 53% 7.3 mph NW11.7 kmh NW 16.8 mph27.0 kmh 29.93 in1013.5 mb 0.00 in0.0 mm 0.00 in0.0 mm 0.00 in0.0 mm
05:10 PM 74.3°F23.5°C 56.1°F13.4°C 53% 7.3 mph NW11.7 kmh NW 16.8 mph27.0 kmh 29.92 in1013.2 mb 0.00 in0.0 mm 0.00 in0.0 mm 0.00 in0.0 mm
05:15 PM 74.3°F23.5°C 56.1°F13.4°C 53% 6.3 mph NNW10.1 kmh NNW 13.0 mph20.9 kmh 29.92 in1013.2 mb 0.00 in0.0 mm 0.00 in0.0 mm 0.00 in0.0 mm
05:20 PM 74.3°F23.5°C 56.1°F13.4°C 53% 5.0 mph N8.0 kmh N 11.4 mph18.3 kmh 29.92 in1013.2 mb 0.00 in0.0 mm 0.00 in0.0 mm 0.00 in0.0 mm
05:25 PM 74.3°F23.5°C 56.1°F13.4°C 53% 5.2 mph N8.4 kmh N 12.1 mph19.5 kmh 29.92 in1013.2 mb 0.00 in0.0 mm 0.00 in0.0 mm 0.00 in0.0 mm
05:30 PM 74.1°F23.4°C 55.9°F13.3°C 53% 6.2 mph NNW10.0 kmh NNW 12.1 mph19.5 kmh 29.92 in1013.2 mb 0.00 in0.0 mm 0.00 in0.0 mm 0.00 in0.0 mm
05:35 PM 73.8°F23.2°C 55.6°F13.1°C 53% 6.2 mph NW10.0 kmh NW 12.1 mph19.5 kmh 29.92 in1013.2 mb 0.00 in0.0 mm 0.00 in0.0 mm 0.00 in0.0 mm
05:40 PM 73.6°F23.1°C 55.4°F13.0°C 53% 6.0 mph NW9.7 kmh NW 10.7 mph17.2 kmh 29.92 in1013.2 mb 0.00 in0.0 mm 0.00 in0.0 mm 0.00 in0.0 mm
05:45 PM 73.4°F23.0°C 55.3°F12.9°C 53% 5.9 mph NW9.5 kmh NW 10.7 mph17.2 kmh 29.93 in1013.5 mb 0.00 in0.0 mm 0.00 in0.0 mm 0.00 in0.0 mm
05:50 PM 73.4°F23.0°C 55.3°F12.9°C 53% 5.5 mph NW8.9 kmh NW 10.7 mph17.2 kmh 29.93 in1013.5 mb 0.00 in0.0 mm 0.00 in0.0 mm 0.00 in0.0 mm
05:55 PM 73.2°F22.9°C 55.1°F12.8°C 53% 5.3 mph NW8.5 kmh NW 13.0 mph20.9 kmh 29.93 in1013.5 mb 0.00 in0.0 mm 0.00 in0.0 mm 0.00 in0.0 mm
06:00 PM 72.9°F22.7°C 54.8°F12.7°C 53% 5.6 mph NW9.0 kmh NW 13.0 mph20.9 kmh 29.93 in1013.5 mb 0.00 in0.0 mm 0.00 in0.0 mm 0.00 in0.0 mm
06:05 PM 72.7°F22.6°C 54.6°F12.6°C 53% 5.9 mph NNW9.5 kmh NNW 12.1 mph19.5 kmh 29.93 in1013.5 mb 0.00 in0.0 mm 0.00 in0.0 mm 0.00 in0.0 mm
06:10 PM 72.5°F22.5°C 54.4°F12.4°C 53% 5.1 mph NNW8.2 kmh NNW 12.1 mph19.5 kmh 29.93 in1013.5 mb 0.00 in0.0 mm 0.00 in0.0 mm 0.00 in0.0 mm
06:15 PM 72.3°F22.4°C 54.3°F12.4°C 53% 4.2 mph NNW6.8 kmh NNW 9.2 mph14.8 kmh 29.93 in1013.5 mb 0.00 in0.0 mm 0.00 in0.0 mm 0.00 in0.0 mm
06:20 PM 72.1°F22.3°C 54.1°F12.3°C 53% 4.1 mph NNW6.6 kmh NNW 9.2 mph14.8 kmh 29.93 in1013.5 mb 0.00 in0.0 mm 0.00 in0.0 mm 0.00 in0.0 mm
06:25 PM 72.0°F22.2°C 53.9°F12.2°C 53% 4.9 mph NW7.9 kmh NW 10.7 mph17.2 kmh 29.93 in1013.5 mb 0.00 in0.0 mm 0.00 in0.0 mm 0.00 in0.0 mm
06:30 PM 71.6°F22.0°C 53.6°F12.0°C 53% 5.1 mph NW8.2 kmh NW 10.7 mph17.2 kmh 29.93 in1013.5 mb 0.00 in0.0 mm 0.00 in0.0 mm 0.00 in0.0 mm
06:35 PM 71.4°F21.9°C 53.4°F11.9°C 53% 4.4 mph NW7.1 kmh NW 9.2 mph14.8 kmh 29.93 in1013.5 mb 0.00 in0.0 mm 0.00 in0.0 mm 0.00 in0.0 mm
06:40 PM 71.1°F21.7°C 53.1°F11.7°C 53% 4.6 mph NW7.4 kmh NW 9.2 mph14.8 kmh 29.94 in1013.9 mb 0.00 in0.0 mm 0.00 in0.0 mm 0.00 in0.0 mm
06:45 PM 70.9°F21.6°C 52.9°F11.6°C 53% 4.6 mph NW7.4 kmh NW 9.8 mph15.8 kmh 29.94 in1013.9 mb 0.00 in0.0 mm 0.00 in0.0 mm 0.00 in0.0 mm
06:50 PM 70.7°F21.5°C 52.8°F11.6°C 53% 4.1 mph NW6.6 kmh NW 9.8 mph15.8 kmh 29.94 in1013.9 mb 0.00 in0.0 mm 0.00 in0.0 mm 0.00 in0.0 mm
06:55 PM 70.3°F21.3°C 52.4°F11.3°C 53% 3.7 mph NW6.0 kmh NW 7.6 mph12.2 kmh 29.94 in1013.9 mb 0.00 in0.0 mm 0.00 in0.0 mm 0.00 in0.0 mm
07:00 PM 70.0°F21.1°C 52.1°F11.2°C 53% 3.6 mph NW5.8 kmh NW 10.7 mph17.2 kmh 29.95 in1014.2 mb 0.00 in0.0 mm 0.00 in0.0 mm 0.00 in0.0 mm
07:05 PM 69.8°F21.0°C 51.9°F11.1°C 53% 3.9 mph NW6.3 kmh NW 10.7 mph17.2 kmh 29.95 in1014.2 mb 0.00 in0.0 mm 0.00 in0.0 mm 0.00 in0.0 mm
07:10 PM 69.4°F20.8°C 51.6°F10.9°C 53% 4.2 mph NW6.8 kmh NW 8.3 mph13.4 kmh 29.94 in1013.9 mb 0.00 in0.0 mm 0.00 in0.0 mm 0.00 in0.0 mm
07:15 PM 69.4°F20.8°C 51.6°F10.9°C 53% 4.8 mph NW7.7 kmh NW 9.2 mph14.8 kmh 29.94 in1013.9 mb 0.00 in0.0 mm 0.00 in0.0 mm 0.00 in0.0 mm
07:20 PM 68.9°F20.5°C 51.1°F10.6°C 53% 4.6 mph NW7.4 kmh NW 9.2 mph14.8 kmh 29.95 in1014.2 mb 0.00 in0.0 mm 0.00 in0.0 mm 0.00 in0.0 mm
07:25 PM 68.7°F20.4°C 50.9°F10.5°C 53% 4.4 mph NW7.1 kmh NW 9.8 mph15.8 kmh 29.95 in1014.2 mb 0.00 in0.0 mm 0.00 in0.0 mm 0.00 in0.0 mm
07:30 PM 68.5°F20.3°C 50.8°F10.4°C 53% 4.4 mph NW7.1 kmh NW 9.8 mph15.8 kmh 29.96 in1014.6 mb 0.00 in0.0 mm 0.00 in0.0 mm 0.00 in0.0 mm
07:35 PM 68.5°F20.3°C 50.8°F10.4°C 53% 3.9 mph NW6.3 kmh NW 8.3 mph13.4 kmh 29.95 in1014.2 mb 0.00 in0.0 mm 0.00 in0.0 mm 0.00 in0.0 mm
07:40 PM 68.0°F20.0°C 50.3°F10.2°C 53% 3.1 mph NW5.0 kmh NW 8.3 mph13.4 kmh 29.96 in1014.6 mb 0.00 in0.0 mm 0.00 in0.0 mm 0.00 in0.0 mm
07:45 PM 67.8°F19.9°C 50.1°F10.1°C 53% 2.7 mph NW4.3 kmh NW 6.0 mph9.7 kmh 29.96 in1014.6 mb 0.00 in0.0 mm 0.00 in0.0 mm 0.00 in0.0 mm
07:50 PM 67.5°F19.7°C 49.8°F9.9°C 53% 2.2 mph NW3.5 kmh NW 6.0 mph9.7 kmh 29.96 in1014.6 mb 0.00 in0.0 mm 0.00 in0.0 mm 0.00 in0.0 mm
07:55 PM 67.3°F19.6°C 49.6°F9.8°C 53% 1.2 mph NW1.9 kmh NW 3.8 mph6.1 kmh 29.97 in1014.9 mb 0.00 in0.0 mm 0.00 in0.0 mm 0.00 in0.0 mm
08:00 PM 66.9°F19.4°C 49.3°F9.6°C 53% 0.7 mph W1.1 kmh W 3.8 mph6.1 kmh 29.97 in1014.9 mb 0.00 in0.0 mm 0.00 in0.0 mm 0.00 in0.0 mm
08:05 PM 66.7°F19.3°C 49.1°F9.5°C 53% 0.5 mph WSW0.8 kmh WSW 3.8 mph6.1 kmh 29.97 in1014.9 mb 0.00 in0.0 mm 0.00 in0.0 mm 0.00 in0.0 mm
08:10 PM 66.6°F19.2°C 48.9°F9.4°C 53% 0.5 mph WSW0.8 kmh WSW 3.1 mph5.0 kmh 29.97 in1014.9 mb 0.00 in0.0 mm 0.00 in0.0 mm 0.00 in0.0 mm
08:15 PM 66.4°F19.1°C 48.8°F9.3°C 53% 0.9 mph SW1.4 kmh SW 3.8 mph6.1 kmh 29.97 in1014.9 mb 0.00 in0.0 mm 0.00 in0.0 mm 0.00 in0.0 mm
08:20 PM 66.0°F18.9°C 48.4°F9.1°C 53% 1.0 mph SSW1.6 kmh SSW 3.8 mph6.1 kmh 29.97 in1014.9 mb 0.00 in0.0 mm 0.00 in0.0 mm 0.00 in0.0 mm
08:25 PM 66.0°F18.9°C 48.4°F9.1°C 53% 0.7 mph S1.1 kmh S 2.2 mph3.5 kmh 29.97 in1014.9 mb 0.00 in0.0 mm 0.00 in0.0 mm 0.00 in0.0 mm
08:30 PM 65.5°F18.6°C 47.9°F8.8°C 53% 0.4 mph SSW0.6 kmh SSW 2.2 mph3.5 kmh 29.97 in1014.9 mb 0.00 in0.0 mm 0.00 in0.0 mm 0.00 in0.0 mm
08:35 PM 65.3°F18.5°C 47.7°F8.7°C 53% 0.2 mph SW0.3 kmh SW 1.6 mph2.6 kmh 29.97 in1014.9 mb 0.00 in0.0 mm 0.00 in0.0 mm 0.00 in0.0 mm
08:40 PM 65.3°F18.5°C 47.7°F8.7°C 53% 0.2 mph SW0.3 kmh SW 2.2 mph3.5 kmh 29.97 in1014.9 mb 0.00 in0.0 mm 0.00 in0.0 mm 0.00 in0.0 mm
08:45 PM 65.1°F18.4°C 47.6°F8.7°C 53% 0.5 mph SW0.8 kmh SW 3.8 mph6.1 kmh 29.97 in1014.9 mb 0.00 in0.0 mm 0.00 in0.0 mm 0.00 in0.0 mm
08:50 PM 64.8°F18.2°C 47.2°F8.4°C 53% 1.3 mph SW2.1 kmh SW 4.5 mph7.2 kmh 29.97 in1014.9 mb 0.00 in0.0 mm 0.00 in0.0 mm 0.00 in0.0 mm
08:55 PM 64.2°F17.9°C 46.7°F8.2°C 53% 2.4 mph SW3.9 kmh SW 5.4 mph8.7 kmh 29.97 in1014.9 mb 0.00 in0.0 mm 0.00 in0.0 mm 0.00 in0.0 mm
09:00 PM 63.9°F17.7°C 46.4°F8.0°C 53% 2.8 mph SW4.5 kmh SW 5.4 mph8.7 kmh 29.98 in1015.2 mb 0.00 in0.0 mm 0.00 in0.0 mm 0.00 in0.0 mm
09:05 PM 63.3°F17.4°C 45.9°F7.7°C 53% 3.0 mph SW4.8 kmh SW 5.4 mph8.7 kmh 29.98 in1015.2 mb 0.00 in0.0 mm 0.00 in0.0 mm 0.00 in0.0 mm
09:10 PM 62.6°F17.0°C 45.2°F7.3°C 53% 3.3 mph SW5.3 kmh SW 5.4 mph8.7 kmh 29.98 in1015.2 mb 0.00 in0.0 mm 0.00 in0.0 mm 0.00 in0.0 mm
09:15 PM 62.1°F16.7°C 43.2°F6.2°C 50% 2.9 mph SW4.7 kmh SW 5.4 mph8.7 kmh 29.98 in1015.2 mb 0.00 in0.0 mm 0.00 in0.0 mm 0.00 in0.0 mm
09:20 PM 61.7°F16.5°C 43.4°F6.3°C 51% 2.0 mph SW3.2 kmh SW 4.5 mph7.2 kmh 29.98 in1015.2 mb 0.00 in0.0 mm 0.00 in0.0 mm 0.00 in0.0 mm
09:25 PM 61.7°F16.5°C 43.4°F6.3°C 51% 1.2 mph SW1.9 kmh SW 3.8 mph6.1 kmh 29.98 in1015.2 mb 0.00 in0.0 mm 0.00 in0.0 mm 0.00 in0.0 mm
09:30 PM 61.5°F16.4°C 43.7°F6.5°C 52% 1.1 mph SW1.8 kmh SW 3.8 mph6.1 kmh 29.98 in1015.2 mb 0.00 in0.0 mm 0.00 in0.0 mm 0.00 in0.0 mm
09:35 PM 61.3°F16.3°C 43.1°F6.2°C 51% 1.9 mph SW3.1 kmh SW 6.0 mph9.7 kmh 29.98 in1015.2 mb 0.00 in0.0 mm 0.00 in0.0 mm 0.00 in0.0 mm
09:40 PM 61.2°F16.2°C 41.9°F5.5°C 49% 1.7 mph SW2.7 kmh SW 6.0 mph9.7 kmh 29.98 in1015.2 mb 0.00 in0.0 mm 0.00 in0.0 mm 0.00 in0.0 mm
09:45 PM 61.0°F16.1°C 42.2°F5.7°C 50% 1.2 mph SW1.9 kmh SW 3.8 mph6.1 kmh 29.98 in1015.2 mb 0.00 in0.0 mm 0.00 in0.0 mm 0.00 in0.0 mm
09:50 PM 60.6°F15.9°C 41.9°F5.5°C 50% 1.1 mph SW1.8 kmh SW 5.4 mph8.7 kmh 29.99 in1015.6 mb 0.00 in0.0 mm 0.00 in0.0 mm 0.00 in0.0 mm
09:55 PM 60.1°F15.6°C 41.9°F5.5°C 51% 1.0 mph WSW1.6 kmh WSW 5.4 mph8.7 kmh 29.98 in1015.2 mb 0.00 in0.0 mm 0.00 in0.0 mm 0.00 in0.0 mm
10:00 PM 59.9°F15.5°C 42.2°F5.7°C 52% 0.7 mph WSW1.1 kmh WSW 4.5 mph7.2 kmh 29.99 in1015.6 mb 0.00 in0.0 mm 0.00 in0.0 mm 0.00 in0.0 mm
10:05 PM 59.9°F15.5°C 42.2°F5.7°C 52% 0.5 mph SW0.8 kmh SW 3.1 mph5.0 kmh 29.99 in1015.6 mb 0.00 in0.0 mm 0.00 in0.0 mm 0.00 in0.0 mm
10:10 PM 59.5°F15.3°C 41.9°F5.5°C 52% 0.6 mph SW1.0 kmh SW 3.8 mph6.1 kmh 29.99 in1015.6 mb 0.00 in0.0 mm 0.00 in0.0 mm 0.00 in0.0 mm
10:15 PM 59.5°F15.3°C 41.9°F5.5°C 52% 0.6 mph WSW1.0 kmh WSW 5.4 mph8.7 kmh 29.99 in1015.6 mb 0.00 in0.0 mm 0.00 in0.0 mm 0.00 in0.0 mm
10:20 PM 59.4°F15.2°C 41.7°F5.4°C 52% 0.8 mph WSW1.3 kmh WSW 5.4 mph8.7 kmh 29.99 in1015.6 mb 0.00 in0.0 mm 0.00 in0.0 mm 0.00 in0.0 mm
10:25 PM 59.4°F15.2°C 41.7°F5.4°C 52% 0.8 mph WSW1.3 kmh WSW 5.4 mph8.7 kmh 29.99 in1015.6 mb 0.00 in0.0 mm 0.00 in0.0 mm 0.00 in0.0 mm
10:30 PM 59.4°F15.2°C 41.7°F5.4°C 52% 0.5 mph WSW0.8 kmh WSW 3.1 mph5.0 kmh 29.99 in1015.6 mb 0.00 in0.0 mm 0.00 in0.0 mm 0.00 in0.0 mm
10:35 PM 59.2°F15.1°C 41.6°F5.3°C 52% 0.4 mph SW0.6 kmh SW 3.8 mph6.1 kmh 29.99 in1015.6 mb 0.00 in0.0 mm 0.00 in0.0 mm 0.00 in0.0 mm
10:40 PM 59.2°F15.1°C 41.6°F5.3°C 52% 0.6 mph WSW1.0 kmh WSW 4.5 mph7.2 kmh 29.99 in1015.6 mb 0.00 in0.0 mm 0.00 in0.0 mm 0.00 in0.0 mm
10:45 PM 59.2°F15.1°C 41.6°F5.3°C 52% 1.0 mph W1.6 kmh W 4.5 mph7.2 kmh 29.99 in1015.6 mb 0.00 in0.0 mm 0.00 in0.0 mm 0.00 in0.0 mm
10:50 PM 59.4°F15.2°C 41.7°F5.4°C 52% 1.3 mph WSW2.1 kmh WSW 6.0 mph9.7 kmh 29.99 in1015.6 mb 0.00 in0.0 mm 0.00 in0.0 mm 0.00 in0.0 mm
10:55 PM 59.5°F15.3°C 41.9°F5.5°C 52% 1.8 mph W2.9 kmh W 6.0 mph9.7 kmh 29.99 in1015.6 mb 0.00 in0.0 mm 0.00 in0.0 mm 0.00 in0.0 mm
11:00 PM 59.4°F15.2°C 41.7°F5.4°C 52% 2.2 mph WNW3.5 kmh WNW 5.4 mph8.7 kmh 30.00 in1015.9 mb 0.00 in0.0 mm 0.00 in0.0 mm 0.00 in0.0 mm
11:05 PM 59.2°F15.1°C 42.6°F5.9°C 54% 1.8 mph WNW2.9 kmh WNW 5.4 mph8.7 kmh 30.00 in1015.9 mb 0.00 in0.0 mm 0.00 in0.0 mm 0.00 in0.0 mm
11:10 PM 59.0°F15.0°C 42.4°F5.8°C 54% 1.1 mph W1.8 kmh W 5.4 mph8.7 kmh 29.99 in1015.6 mb 0.00 in0.0 mm 0.00 in0.0 mm 0.00 in0.0 mm
11:15 PM 58.6°F14.8°C 42.5°F5.8°C 55% 0.7 mph WSW1.1 kmh WSW 4.5 mph7.2 kmh 30.00 in1015.9 mb 0.00 in0.0 mm 0.00 in0.0 mm 0.00 in0.0 mm
11:20 PM 58.3°F14.6°C 43.1°F6.2°C 57% 0.7 mph SW1.1 kmh SW 4.5 mph7.2 kmh 30.00 in1015.9 mb 0.00 in0.0 mm 0.00 in0.0 mm 0.00 in0.0 mm
11:25 PM 57.9°F14.4°C 43.2°F6.2°C 58% 0.6 mph SW1.0 kmh SW 3.8 mph6.1 kmh 30.00 in1015.9 mb 0.00 in0.0 mm 0.00 in0.0 mm 0.00 in0.0 mm
11:30 PM 57.7°F14.3°C 43.1°F6.2°C 58% 0.4 mph SW0.6 kmh SW 3.1 mph5.0 kmh 30.00 in1015.9 mb 0.00 in0.0 mm 0.00 in0.0 mm 0.00 in0.0 mm
11:35 PM 57.7°F14.3°C 43.1°F6.2°C 58% 0.2 mph SW0.3 kmh SW 2.2 mph3.5 kmh 30.00 in1015.9 mb 0.00 in0.0 mm 0.00 in0.0 mm 0.00 in0.0 mm
11:40 PM 57.9°F14.4°C 43.2°F6.2°C 58% 0.2 mph WSW0.3 kmh WSW 3.1 mph5.0 kmh 30.00 in1015.9 mb 0.00 in0.0 mm 0.00 in0.0 mm 0.00 in0.0 mm
11:45 PM 58.1°F14.5°C 43.0°F6.1°C 57% 0.4 mph WSW0.6 kmh WSW 3.1 mph5.0 kmh 30.00 in1015.9 mb 0.00 in0.0 mm 0.00 in0.0 mm 0.00 in0.0 mm
11:50 PM 58.1°F14.5°C 43.4°F6.3°C 58% 0.3 mph SW0.5 kmh SW 3.1 mph5.0 kmh 30.00 in1015.9 mb 0.00 in0.0 mm 0.00 in0.0 mm 0.00 in0.0 mm
11:55 PM 58.1°F14.5°C 43.4°F6.3°C 58% 0.4 mph SW0.6 kmh SW 4.5 mph7.2 kmh 30.00 in1015.9 mb 0.00 in0.0 mm 0.00 in0.0 mm 0.00 in0.0 mm